createdAt,value
2023-03-28T00:01:07.000Z,2.51
2023-03-28T00:03:47.000Z,2.47
2023-03-28T00:06:27.000Z,2.47
2023-03-28T00:09:09.000Z,2.47
2023-03-28T00:11:51.000Z,2.47
2023-03-28T00:14:33.000Z,2.5
2023-03-28T00:17:22.000Z,2.5
2023-03-28T00:20:03.000Z,2.53
2023-03-28T00:22:43.000Z,2.48
2023-03-28T00:25:23.000Z,2.37
2023-03-28T00:28:03.000Z,2.29
2023-03-28T00:30:42.000Z,2.32
2023-03-28T00:33:23.000Z,2.22
2023-03-28T00:36:03.000Z,2.14
2023-03-28T00:38:42.000Z,2.11
2023-03-28T00:41:22.000Z,2.11
2023-03-28T00:44:08.000Z,2.17
2023-03-28T00:46:49.000Z,2.17
2023-03-28T00:49:33.000Z,2.12
2023-03-28T00:52:14.000Z,2.15
2023-03-28T00:54:54.000Z,2.18
2023-03-28T00:57:36.000Z,2.14
2023-03-28T01:00:18.000Z,2.11
2023-03-28T01:02:59.000Z,2.14
2023-03-28T01:05:40.000Z,2.17
2023-03-28T01:08:21.000Z,2.24
2023-03-28T01:11:03.000Z,2.28
2023-03-28T01:13:44.000Z,2.35
2023-03-28T01:16:23.000Z,2.35
2023-03-28T01:19:05.000Z,2.37
2023-03-28T01:21:44.000Z,2.42
2023-03-28T01:24:25.000Z,2.4
2023-03-28T01:27:07.000Z,2.43
2023-03-28T01:29:49.000Z,2.47
2023-03-28T01:32:34.000Z,2.5
2023-03-28T01:35:14.000Z,2.5
2023-03-28T01:37:56.000Z,2.48
2023-03-28T01:40:36.000Z,2.47
2023-03-28T01:43:19.000Z,2.45
2023-03-28T01:45:58.000Z,2.4
2023-03-28T01:48:38.000Z,2.37
2023-03-28T01:51:26.000Z,2.37
2023-03-28T01:54:08.000Z,2.36
2023-03-28T01:56:51.000Z,2.36
2023-03-28T01:59:33.000Z,2.39
2023-03-28T02:02:14.000Z,2.39
2023-03-28T02:04:55.000Z,2.43
2023-03-28T02:07:37.000Z,2.42
2023-03-28T02:10:18.000Z,2.42
2023-03-28T02:12:59.000Z,2.45
2023-03-28T02:15:40.000Z,2.43
2023-03-28T02:18:24.000Z,2.42
2023-03-28T02:21:06.000Z,2.36
2023-03-28T02:23:45.000Z,2.36
2023-03-28T02:26:27.000Z,2.35
2023-03-28T02:29:10.000Z,2.37
2023-03-28T02:31:52.000Z,2.36
2023-03-28T02:34:33.000Z,2.4
2023-03-28T02:37:16.000Z,2.42
2023-03-28T02:39:58.000Z,2.43
2023-03-28T02:42:37.000Z,2.42
2023-03-28T02:45:19.000Z,2.42
2023-03-28T02:47:59.000Z,2.45
2023-03-28T02:50:39.000Z,2.45
2023-03-28T02:53:20.000Z,2.45
2023-03-28T02:55:59.000Z,2.45
2023-03-28T02:58:40.000Z,2.45
2023-03-28T03:01:20.000Z,2.43
2023-03-28T03:03:59.000Z,2.54
2023-03-28T03:06:41.000Z,2.54
2023-03-28T03:09:25.000Z,2.53
2023-03-28T03:12:07.000Z,2.53
2023-03-28T03:14:50.000Z,2.5
2023-03-28T03:17:28.000Z,2.47
2023-03-28T03:20:14.000Z,2.43
2023-03-28T03:22:53.000Z,2.39
2023-03-28T03:25:34.000Z,2.29
2023-03-28T03:28:14.000Z,2.18
2023-03-28T03:30:55.000Z,2.04
2023-03-28T03:33:35.000Z,1.93
2023-03-28T03:36:15.000Z,1.8
2023-03-28T03:38:57.000Z,1.66
2023-03-28T03:41:39.000Z,1.67
2023-03-28T03:44:21.000Z,1.62
2023-03-28T03:47:01.000Z,1.52
2023-03-28T03:49:44.000Z,1.46
2023-03-28T03:52:24.000Z,1.45
2023-03-28T03:55:05.000Z,1.44
2023-03-28T03:57:43.000Z,1.56
2023-03-28T04:00:24.000Z,1.62
2023-03-28T04:03:06.000Z,1.63
2023-03-28T04:05:45.000Z,1.69
2023-03-28T04:08:25.000Z,1.78
2023-03-28T04:11:07.000Z,1.81
2023-03-28T04:13:49.000Z,1.85
2023-03-28T04:16:33.000Z,1.84
2023-03-28T04:19:17.000Z,1.82
2023-03-28T04:21:56.000Z,1.84
2023-03-28T04:24:37.000Z,1.87
2023-03-28T04:27:19.000Z,1.82
2023-03-28T04:30:00.000Z,1.8
2023-03-28T04:32:41.000Z,1.78
2023-03-28T04:35:20.000Z,1.75
2023-03-28T04:38:00.000Z,1.77
2023-03-28T04:40:38.000Z,1.78
2023-03-28T04:43:20.000Z,1.84
2023-03-28T04:45:59.000Z,1.82
2023-03-28T04:48:41.000Z,1.82
2023-03-28T04:51:22.000Z,1.81
2023-03-28T04:54:08.000Z,1.82
2023-03-28T04:56:50.000Z,1.85
2023-03-28T04:59:32.000Z,1.85
2023-03-28T05:02:14.000Z,1.85
2023-03-28T05:04:55.000Z,1.91
2023-03-28T05:07:36.000Z,1.93
2023-03-28T05:10:19.000Z,1.93
2023-03-28T05:13:00.000Z,1.99
2023-03-28T05:15:42.000Z,2.03
2023-03-28T05:18:24.000Z,2.04
2023-03-28T05:21:06.000Z,2.11
2023-03-28T05:23:46.000Z,2.15
2023-03-28T05:26:26.000Z,2.3
2023-03-28T05:29:08.000Z,2.36
2023-03-28T05:31:50.000Z,2.37
2023-03-28T05:34:34.000Z,2.33
2023-03-28T05:37:17.000Z,2.35
2023-03-28T05:39:56.000Z,2.3
2023-03-28T05:42:38.000Z,2.43
2023-03-28T05:45:19.000Z,2.36
2023-03-28T05:48:00.000Z,2.3
2023-03-28T05:50:42.000Z,2.29
2023-03-28T05:53:24.000Z,2.32
2023-03-28T05:56:05.000Z,2.35
2023-03-28T05:58:45.000Z,2.39
2023-03-28T06:01:24.000Z,2.43
2023-03-28T06:04:09.000Z,2.4
2023-03-28T06:06:49.000Z,2.47
2023-03-28T06:09:32.000Z,2.4
2023-03-28T06:12:13.000Z,2.36
2023-03-28T06:14:55.000Z,2.37
2023-03-28T06:17:34.000Z,2.35
2023-03-28T06:20:14.000Z,2.54
2023-03-28T06:22:56.000Z,2.5
2023-03-28T06:25:37.000Z,2.42
2023-03-28T06:28:19.000Z,2.48
2023-03-28T06:31:04.000Z,2.4
2023-03-28T06:33:45.000Z,2.47
2023-03-28T06:36:25.000Z,2.4
2023-03-28T06:39:07.000Z,2.39
2023-03-28T06:41:47.000Z,2.43
2023-03-28T06:44:26.000Z,2.57
2023-03-28T06:47:07.000Z,2.68
2023-03-28T06:49:47.000Z,2.63
2023-03-28T06:52:28.000Z,2.9
2023-03-28T06:55:08.000Z,3.0
2023-03-28T06:57:48.000Z,2.84
2023-03-28T07:00:29.000Z,2.81
2023-03-28T07:03:10.000Z,2.81
2023-03-28T07:05:52.000Z,2.89
2023-03-28T07:08:35.000Z,2.87
2023-03-28T07:11:17.000Z,2.87
2023-03-28T07:13:59.000Z,2.78
2023-03-28T07:16:40.000Z,2.86
2023-03-28T07:19:19.000Z,2.99
2023-03-28T07:22:00.000Z,3.33
2023-03-28T07:24:40.000Z,3.35
2023-03-28T07:27:26.000Z,3.35
2023-03-28T07:30:09.000Z,3.26
2023-03-28T07:32:50.000Z,3.2
2023-03-28T07:35:32.000Z,3.3
2023-03-28T07:38:14.000Z,3.2
2023-03-28T07:40:55.000Z,3.32
2023-03-28T07:43:35.000Z,3.15
2023-03-28T07:46:18.000Z,3.17
2023-03-28T07:49:01.000Z,3.48
2023-03-28T07:51:43.000Z,3.52
2023-03-28T07:54:21.000Z,3.92
2023-03-28T07:57:02.000Z,3.91
2023-03-28T07:59:42.000Z,4.02
2023-03-28T08:02:23.000Z,3.81
2023-03-28T08:05:04.000Z,3.96
2023-03-28T08:07:43.000Z,4.27
2023-03-28T08:10:22.000Z,4.51
2023-03-28T08:12:59.000Z,4.42
2023-03-28T08:15:44.000Z,4.34
2023-03-28T08:18:25.000Z,4.6
2023-03-28T08:21:08.000Z,4.71
2023-03-28T08:23:49.000Z,4.12
2023-03-28T08:26:31.000Z,3.85
2023-03-28T08:29:18.000Z,3.7
2023-03-28T08:31:59.000Z,4.24
2023-03-28T08:34:39.000Z,4.67
2023-03-28T08:37:20.000Z,4.93
2023-03-28T08:40:01.000Z,5.21
2023-03-28T08:42:43.000Z,5.18
2023-03-28T08:45:24.000Z,4.56
2023-03-28T08:48:07.000Z,4.45
2023-03-28T08:50:50.000Z,5.01
2023-03-28T08:53:33.000Z,5.4
2023-03-28T08:56:14.000Z,5.62
2023-03-28T08:58:56.000Z,5.04
2023-03-28T09:01:36.000Z,4.54
2023-03-28T09:04:14.000Z,4.83
2023-03-28T09:06:55.000Z,5.4
2023-03-28T09:09:37.000Z,5.97
2023-03-28T09:12:19.000Z,6.09
2023-03-28T09:15:01.000Z,6.34
2023-03-28T09:17:44.000Z,5.91
2023-03-28T09:20:25.000Z,5.36
2023-03-28T09:23:08.000Z,5.44
2023-03-28T09:25:51.000Z,6.02
2023-03-28T09:28:32.000Z,6.05
2023-03-28T09:31:15.000Z,6.15
2023-03-28T09:33:59.000Z,5.87
2023-03-28T09:36:41.000Z,6.06
2023-03-28T09:39:24.000Z,6.45
2023-03-28T09:42:07.000Z,6.89
2023-03-28T09:44:54.000Z,6.32
2023-03-28T09:47:35.000Z,6.32
2023-03-28T09:50:18.000Z,5.61
2023-03-28T09:53:06.000Z,5.47
2023-03-28T09:55:47.000Z,5.9
2023-03-28T09:58:27.000Z,6.46
2023-03-28T10:01:09.000Z,6.47
2023-03-28T10:03:55.000Z,6.92
2023-03-28T10:06:40.000Z,6.83
2023-03-28T10:09:23.000Z,6.91
2023-03-28T10:12:07.000Z,7.06
2023-03-28T10:14:50.000Z,7.22
2023-03-28T10:17:33.000Z,6.79
2023-03-28T10:20:13.000Z,6.79
2023-03-28T10:22:55.000Z,6.28
2023-03-28T10:25:36.000Z,6.31
2023-03-28T10:28:17.000Z,5.79
2023-03-28T10:31:00.000Z,5.85
2023-03-28T10:33:44.000Z,6.56
2023-03-28T10:36:25.000Z,6.97
2023-03-28T10:39:08.000Z,6.91
2023-03-28T10:41:51.000Z,7.54
2023-03-28T10:44:38.000Z,7.46
2023-03-28T10:47:20.000Z,7.31
2023-03-28T10:50:00.000Z,6.67
2023-03-28T10:52:44.000Z,6.7
2023-03-28T10:55:25.000Z,6.43
2023-03-28T10:58:08.000Z,6.6
2023-03-28T11:00:52.000Z,7.19
2023-03-28T11:03:34.000Z,8.05
2023-03-28T11:06:16.000Z,7.21
2023-03-28T11:08:59.000Z,7.06
2023-03-28T11:11:44.000Z,7.46
2023-03-28T11:14:24.000Z,7.81
2023-03-28T11:17:08.000Z,8.14
2023-03-28T11:19:50.000Z,8.34
2023-03-28T11:22:36.000Z,7.88
2023-03-28T11:25:17.000Z,7.62
2023-03-28T11:28:00.000Z,7.44
2023-03-28T11:30:44.000Z,6.89
2023-03-28T11:33:24.000Z,6.99
2023-03-28T11:36:08.000Z,7.8
2023-03-28T11:38:50.000Z,7.96
2023-03-28T11:41:35.000Z,8.05
2023-03-28T11:44:19.000Z,7.61
2023-03-28T11:47:00.000Z,7.76
2023-03-28T11:49:42.000Z,7.71
2023-03-28T11:52:25.000Z,7.81
2023-03-28T11:55:08.000Z,7.57
2023-03-28T11:57:52.000Z,8.29
2023-03-28T12:00:36.000Z,8.26
2023-03-28T12:03:18.000Z,7.92
2023-03-28T12:06:01.000Z,7.5
2023-03-28T12:08:43.000Z,7.77
2023-03-28T12:11:26.000Z,8.67
2023-03-28T12:14:10.000Z,8.19
2023-03-28T12:16:52.000Z,8.19
2023-03-28T12:19:34.000Z,7.55
2023-03-28T12:22:23.000Z,8.01
2023-03-28T12:25:05.000Z,8.35
2023-03-28T12:27:45.000Z,7.64
2023-03-28T12:30:31.000Z,7.83
2023-03-28T12:33:15.000Z,8.53
2023-03-28T12:35:57.000Z,8.81
2023-03-28T12:38:41.000Z,8.74
2023-03-28T12:41:27.000Z,8.78
2023-03-28T12:44:09.000Z,8.32
2023-03-28T12:46:53.000Z,7.6
2023-03-28T12:49:35.000Z,7.54
2023-03-28T12:52:19.000Z,8.34
2023-03-28T12:55:02.000Z,8.06
2023-03-28T12:57:43.000Z,8.47
2023-03-28T13:00:24.000Z,8.85
2023-03-28T13:03:07.000Z,9.33
2023-03-28T13:05:49.000Z,9.3
2023-03-28T13:08:31.000Z,9.98
2023-03-28T13:11:15.000Z,8.98
2023-03-28T13:13:58.000Z,8.77
2023-03-28T13:16:44.000Z,8.52
2023-03-28T13:19:25.000Z,8.26
2023-03-28T13:22:12.000Z,7.99
2023-03-28T13:24:55.000Z,7.76
2023-03-28T13:27:39.000Z,7.43
2023-03-28T13:30:22.000Z,7.0
2023-03-28T13:33:08.000Z,6.86
2023-03-28T13:35:50.000Z,6.57
2023-03-28T13:38:33.000Z,6.55
2023-03-28T13:41:18.000Z,6.42
2023-03-28T13:44:04.000Z,6.53
2023-03-28T13:46:44.000Z,6.63
2023-03-28T13:49:24.000Z,6.52
2023-03-28T13:52:07.000Z,6.5
2023-03-28T13:54:48.000Z,6.92
2023-03-28T13:57:32.000Z,7.62
2023-03-28T14:00:17.000Z,8.21
2023-03-28T14:02:59.000Z,8.37
2023-03-28T14:05:41.000Z,8.35
2023-03-28T14:08:32.000Z,8.46
2023-03-28T14:11:15.000Z,8.06
2023-03-28T14:14:00.000Z,7.87
2023-03-28T14:16:48.000Z,7.57
2023-03-28T14:19:31.000Z,7.4
2023-03-28T14:22:17.000Z,7.18
2023-03-28T14:25:00.000Z,7.21
2023-03-28T14:27:42.000Z,7.1
2023-03-28T14:30:23.000Z,7.04
2023-03-28T14:33:06.000Z,7.26
2023-03-28T14:35:49.000Z,7.54
2023-03-28T14:38:32.000Z,7.44
2023-03-28T14:41:18.000Z,7.55
2023-03-28T14:44:00.000Z,7.83
2023-03-28T14:46:42.000Z,7.84
2023-03-28T14:49:25.000Z,8.12
2023-03-28T14:52:08.000Z,8.16
2023-03-28T14:54:52.000Z,8.06
2023-03-28T14:57:35.000Z,8.17
2023-03-28T15:00:18.000Z,7.69
2023-03-28T15:03:05.000Z,7.62
2023-03-28T15:05:45.000Z,7.44
2023-03-28T15:08:27.000Z,7.21
2023-03-28T15:11:09.000Z,7.1
2023-03-28T15:13:50.000Z,7.01
2023-03-28T15:16:33.000Z,7.04
2023-03-28T15:19:18.000Z,6.99
2023-03-28T15:22:03.000Z,6.85
2023-03-28T15:24:45.000Z,6.81
2023-03-28T15:27:26.000Z,6.74
2023-03-28T15:30:11.000Z,6.86
2023-03-28T15:32:53.000Z,6.74
2023-03-28T15:35:35.000Z,6.55
2023-03-28T15:38:21.000Z,6.49
2023-03-28T15:41:05.000Z,6.45
2023-03-28T15:43:46.000Z,6.45
2023-03-28T15:46:28.000Z,6.38
2023-03-28T15:49:09.000Z,6.46
2023-03-28T15:51:51.000Z,6.57
2023-03-28T15:54:34.000Z,6.82
2023-03-28T15:57:18.000Z,6.93
2023-03-28T16:00:01.000Z,6.99
2023-03-28T16:02:44.000Z,6.81
2023-03-28T16:05:26.000Z,6.99
2023-03-28T16:08:09.000Z,6.81
2023-03-28T16:10:54.000Z,7.04
2023-03-28T16:13:38.000Z,7.24
2023-03-28T16:16:25.000Z,7.24
2023-03-28T16:19:09.000Z,7.08
2023-03-28T16:21:54.000Z,7.15
2023-03-28T16:24:37.000Z,6.93
2023-03-28T16:27:18.000Z,6.86
2023-03-28T16:30:00.000Z,6.91
2023-03-28T16:32:44.000Z,6.85
2023-03-28T16:35:34.000Z,6.91
2023-03-28T16:38:15.000Z,6.89
2023-03-28T16:40:58.000Z,6.86
2023-03-28T16:43:42.000Z,6.78
2023-03-28T16:46:25.000Z,6.82
2023-03-28T16:49:15.000Z,6.75
2023-03-28T16:51:58.000Z,6.74
2023-03-28T16:54:43.000Z,6.81
2023-03-28T16:57:24.000Z,6.78
2023-03-28T17:00:12.000Z,6.7
2023-03-28T17:03:00.000Z,6.65
2023-03-28T17:05:48.000Z,6.47
2023-03-28T17:08:32.000Z,6.5
2023-03-28T17:11:19.000Z,6.45
2023-03-28T17:14:18.000Z,6.28
2023-03-28T17:17:07.000Z,6.15
2023-03-28T17:20:02.000Z,6.0
2023-03-28T17:22:55.000Z,5.82
2023-03-28T17:25:39.000Z,5.72
2023-03-28T17:28:26.000Z,5.55
2023-03-28T17:31:11.000Z,5.4
2023-03-28T17:33:56.000Z,5.24
2023-03-28T17:36:41.000Z,5.04
2023-03-28T17:39:39.000Z,4.89
2023-03-28T17:42:37.000Z,4.75
2023-03-28T17:45:35.000Z,4.64
2023-03-28T17:48:23.000Z,4.54
2023-03-28T17:51:07.000Z,4.45
2023-03-28T17:53:55.000Z,4.41
2023-03-28T17:56:42.000Z,4.3
2023-03-28T17:59:33.000Z,4.16
2023-03-28T18:02:19.000Z,4.0
2023-03-28T18:05:09.000Z,3.91
2023-03-28T18:09:07.000Z,3.82
2023-03-28T18:11:49.000Z,3.73
2023-03-28T18:14:28.000Z,3.62
2023-03-28T18:17:10.000Z,3.52
2023-03-28T18:19:55.000Z,3.46
2023-03-28T18:22:41.000Z,3.42
2023-03-28T18:25:25.000Z,3.29
2023-03-28T18:28:12.000Z,3.27
2023-03-28T18:30:56.000Z,3.22
2023-03-28T18:33:39.000Z,3.12
2023-03-28T18:36:22.000Z,3.11
2023-03-28T18:39:04.000Z,3.0
2023-03-28T18:41:45.000Z,2.97
2023-03-28T18:44:29.000Z,2.9
2023-03-28T18:47:12.000Z,2.89
2023-03-28T18:49:54.000Z,2.91
2023-03-28T18:52:35.000Z,2.93
2023-03-28T18:55:16.000Z,2.96
2023-03-28T18:57:59.000Z,2.91
2023-03-28T19:00:46.000Z,2.86
2023-03-28T19:03:39.000Z,2.82
2023-03-28T19:06:21.000Z,2.72
2023-03-28T19:09:05.000Z,2.63
2023-03-28T19:11:46.000Z,2.63
2023-03-28T19:14:30.000Z,2.61
2023-03-28T19:17:14.000Z,2.58
2023-03-28T19:19:58.000Z,2.54
2023-03-28T19:22:41.000Z,2.3
2023-03-28T19:25:24.000Z,2.29
2023-03-28T19:28:08.000Z,2.33
2023-03-28T19:30:53.000Z,2.24
2023-03-28T19:33:35.000Z,2.18
2023-03-28T19:36:19.000Z,2.19
2023-03-28T19:39:02.000Z,2.24
2023-03-28T19:41:50.000Z,2.24
2023-03-28T19:44:33.000Z,2.25
2023-03-28T19:47:22.000Z,2.25
2023-03-28T19:50:06.000Z,2.3
2023-03-28T19:52:53.000Z,2.32
2023-03-28T19:55:35.000Z,2.35
2023-03-28T19:58:25.000Z,2.37
2023-03-28T20:01:07.000Z,2.39
2023-03-28T20:03:51.000Z,2.42
2023-03-28T20:06:35.000Z,2.42
2023-03-28T20:09:20.000Z,2.43
2023-03-28T20:12:01.000Z,2.43
2023-03-28T20:14:42.000Z,2.42
2023-03-28T20:17:24.000Z,2.42
2023-03-28T20:20:07.000Z,2.39
2023-03-28T20:22:56.000Z,2.37
2023-03-28T20:25:49.000Z,2.42
2023-03-28T20:28:32.000Z,2.47
2023-03-28T20:31:13.000Z,2.5
2023-03-28T20:33:56.000Z,2.51
2023-03-28T20:36:38.000Z,2.51
2023-03-28T20:39:20.000Z,2.55
2023-03-28T20:42:03.000Z,2.55
2023-03-28T20:44:44.000Z,2.54
2023-03-28T20:47:24.000Z,2.55
2023-03-28T20:50:07.000Z,2.58
2023-03-28T20:52:49.000Z,2.57
2023-03-28T20:55:33.000Z,2.54
2023-03-28T20:58:18.000Z,2.5
2023-03-28T21:00:59.000Z,2.42
2023-03-28T21:03:42.000Z,2.32
2023-03-28T21:06:25.000Z,2.21
2023-03-28T21:09:09.000Z,2.1
2023-03-28T21:11:54.000Z,1.95
2023-03-28T21:14:35.000Z,1.82
2023-03-28T21:17:17.000Z,1.71
2023-03-28T21:20:00.000Z,1.67
2023-03-28T21:22:43.000Z,1.63
2023-03-28T21:25:24.000Z,1.63
2023-03-28T21:28:09.000Z,1.66
2023-03-28T21:30:54.000Z,1.71
2023-03-28T21:33:34.000Z,1.77
2023-03-28T21:36:14.000Z,1.82
2023-03-28T21:38:57.000Z,1.92
2023-03-28T21:41:39.000Z,1.93
2023-03-28T21:44:22.000Z,1.93
2023-03-28T21:47:04.000Z,1.92
2023-03-28T21:49:44.000Z,1.97
2023-03-28T21:52:24.000Z,1.99
2023-03-28T21:55:07.000Z,2.03
2023-03-28T21:57:50.000Z,2.06
2023-03-28T22:00:33.000Z,2.04
2023-03-28T22:03:23.000Z,2.07
2023-03-28T22:06:05.000Z,2.07
2023-03-28T22:08:46.000Z,2.11
2023-03-28T22:11:26.000Z,2.11
2023-03-28T22:14:11.000Z,2.12
2023-03-28T22:16:55.000Z,2.17
2023-03-28T22:19:39.000Z,2.21
2023-03-28T22:22:21.000Z,2.24
2023-03-28T22:25:02.000Z,2.25
2023-03-28T22:27:42.000Z,2.28
2023-03-28T22:30:24.000Z,2.29
2023-03-28T22:33:12.000Z,2.35
2023-03-28T22:35:52.000Z,2.39
2023-03-28T22:38:34.000Z,2.43
2023-03-28T22:41:14.000Z,2.48
2023-03-28T22:43:56.000Z,2.51
2023-03-28T22:46:39.000Z,2.54
2023-03-28T22:49:21.000Z,2.58
2023-03-28T22:52:08.000Z,2.58
2023-03-28T22:54:49.000Z,2.54
2023-03-28T22:57:32.000Z,2.55
2023-03-28T23:00:18.000Z,2.54
2023-03-28T23:03:00.000Z,2.54
2023-03-28T23:05:44.000Z,2.54
2023-03-28T23:08:25.000Z,2.54
2023-03-28T23:11:07.000Z,2.55
2023-03-28T23:13:46.000Z,2.55
2023-03-28T23:16:30.000Z,2.57
2023-03-28T23:19:13.000Z,2.58
2023-03-28T23:21:55.000Z,2.58
2023-03-28T23:24:44.000Z,2.58
2023-03-28T23:27:28.000Z,2.6
2023-03-28T23:30:10.000Z,2.61
2023-03-28T23:32:55.000Z,2.6
2023-03-28T23:35:39.000Z,2.57
2023-03-28T23:38:19.000Z,2.55
2023-03-28T23:41:00.000Z,2.53
2023-03-28T23:43:42.000Z,2.51
2023-03-28T23:46:25.000Z,2.51
2023-03-28T23:49:07.000Z,2.48
2023-03-28T23:51:49.000Z,2.45
2023-03-28T23:54:31.000Z,2.4
2023-03-28T23:57:14.000Z,2.4
2023-03-28T23:59:58.000Z,2.37
